createdAt,value
2019-05-30T00:00:27.718Z,97.10
2019-05-30T00:02:54.041Z,97.10
2019-05-30T00:05:20.881Z,97.00
2019-05-30T00:07:47.081Z,97.00
2019-05-30T00:10:13.662Z,97.00
2019-05-30T00:12:39.822Z,97.20
2019-05-30T00:15:06.564Z,97.20
2019-05-30T00:17:33.100Z,97.10
2019-05-30T00:19:59.285Z,97.20
2019-05-30T00:22:26.473Z,97.10
2019-05-30T00:24:52.679Z,97.40
2019-05-30T00:27:18.928Z,97.30
2019-05-30T00:29:45.097Z,97.30
2019-05-30T00:32:11.381Z,97.30
2019-05-30T00:34:37.556Z,97.30
2019-05-30T00:37:04.129Z,97.40
2019-05-30T00:39:30.600Z,97.40
2019-05-30T00:41:57.781Z,97.50
2019-05-30T00:44:24.170Z,97.60
2019-05-30T00:46:50.415Z,97.60
2019-05-30T00:49:16.655Z,97.70
2019-05-30T00:51:42.833Z,97.70
2019-05-30T00:54:09.312Z,97.70
2019-05-30T00:56:35.490Z,97.70
2019-05-30T00:59:02.742Z,97.60
2019-05-30T01:01:29.074Z,97.50
2019-05-30T01:03:56.734Z,97.50
2019-05-30T01:06:23.146Z,97.50
2019-05-30T01:08:49.568Z,97.70
2019-05-30T01:11:15.982Z,97.70
2019-05-30T01:13:42.148Z,97.60
2019-05-30T01:16:08.575Z,97.60
2019-05-30T01:18:34.759Z,97.50
2019-05-30T01:21:01.311Z,97.50
2019-05-30T01:23:27.556Z,97.90
2019-05-30T01:25:53.756Z,97.40
2019-05-30T01:28:19.916Z,97.60
2019-05-30T01:30:59.119Z,97.60
2019-05-30T01:33:14.262Z,97.70
2019-05-30T01:35:40.427Z,97.60
2019-05-30T01:38:07.948Z,97.40
2019-05-30T01:40:34.369Z,97.30
2019-05-30T01:43:01.984Z,97.30
2019-05-30T01:45:28.361Z,97.40
2019-05-30T01:47:54.525Z,97.30
2019-05-30T01:50:21.108Z,97.30
2019-05-30T01:52:47.268Z,97.30
2019-05-30T01:55:14.352Z,97.30
2019-05-30T01:57:40.542Z,97.30
2019-05-30T02:00:20.225Z,97.60
2019-05-30T02:02:39.281Z,97.80
2019-05-30T02:05:07.506Z,97.70
2019-05-30T02:07:33.734Z,97.90
2019-05-30T02:10:01.090Z,97.70
2019-05-30T02:12:27.457Z,97.80
2019-05-30T02:14:53.639Z,97.90
2019-05-30T02:17:19.838Z,97.80
2019-05-30T02:19:46.001Z,98.30
2019-05-30T02:22:12.440Z,98.10
2019-05-30T02:24:38.614Z,98.00
2019-05-30T02:27:04.817Z,98.00
2019-05-30T02:29:52.016Z,97.90
2019-05-30T02:32:18.176Z,97.90
2019-05-30T02:34:44.417Z,97.90
2019-05-30T02:37:12.680Z,97.80
2019-05-30T02:39:39.708Z,98.00
2019-05-30T02:42:07.299Z,97.90
2019-05-30T02:44:33.837Z,97.90
2019-05-30T02:47:01.445Z,98.10
2019-05-30T02:49:28.117Z,98.40
2019-05-30T02:51:54.274Z,98.40
2019-05-30T02:54:20.561Z,98.50
2019-05-30T02:56:46.964Z,98.50
2019-05-30T02:59:13.900Z,98.30
2019-05-30T03:01:59.287Z,98.30
2019-05-30T03:04:10.199Z,98.10
2019-05-30T03:06:36.482Z,98.10
2019-05-30T03:09:06.228Z,98.20
2019-05-30T03:11:33.900Z,98.40
2019-05-30T03:14:02.127Z,98.30
2019-05-30T03:16:28.661Z,98.00
2019-05-30T03:18:55.028Z,98.20
2019-05-30T03:21:21.227Z,98.50
2019-05-30T03:23:47.415Z,98.50
2019-05-30T03:26:15.697Z,98.30
2019-05-30T03:28:41.673Z,98.00
2019-05-30T03:31:20.360Z,97.90
2019-05-30T03:33:41.408Z,98.10
2019-05-30T03:36:09.937Z,98.00
2019-05-30T03:38:32.730Z,98.30
2019-05-30T03:40:58.936Z,98.10
2019-05-30T03:43:25.409Z,98.20
2019-05-30T03:45:52.194Z,98.30
2019-05-30T03:48:21.482Z,98.50
2019-05-30T03:50:51.192Z,98.50
2019-05-30T03:53:17.769Z,98.50
2019-05-30T03:55:47.760Z,98.40
2019-05-30T03:58:32.476Z,98.40
2019-05-30T04:01:02.498Z,98.30
2019-05-30T04:03:59.975Z,98.10
2019-05-30T04:06:29.955Z,98.10
2019-05-30T04:08:59.952Z,98.00
2019-05-30T04:11:31.032Z,97.90
2019-05-30T04:14:01.123Z,97.80
2019-05-30T04:16:27.279Z,97.70
2019-05-30T04:18:53.450Z,97.30
2019-05-30T04:21:21.691Z,97.30
2019-05-30T04:23:48.028Z,97.30
2019-05-30T04:26:15.723Z,97.10
2019-05-30T04:28:42.297Z,97.00
2019-05-30T04:31:09.878Z,96.90
2019-05-30T04:33:36.369Z,96.70
2019-05-30T04:36:02.541Z,96.70
2019-05-30T04:38:28.771Z,96.60
2019-05-30T04:40:54.937Z,96.30
2019-05-30T04:43:22.380Z,96.20
2019-05-30T04:45:48.634Z,95.60
2019-05-30T04:48:16.189Z,95.10
2019-05-30T04:50:42.532Z,94.70
2019-05-30T04:53:10.176Z,94.60
2019-05-30T04:55:36.793Z,94.20
2019-05-30T04:58:02.996Z,94.00
2019-05-30T05:00:29.587Z,93.50
2019-05-30T05:02:55.752Z,93.20
2019-05-30T05:05:26.540Z,92.60
2019-05-30T05:07:50.574Z,92.40
2019-05-30T05:10:18.266Z,92.10
2019-05-30T05:12:44.729Z,91.90
2019-05-30T05:15:12.379Z,92.10
2019-05-30T05:17:38.993Z,91.20
2019-05-30T05:20:06.074Z,89.90
2019-05-30T05:22:32.561Z,89.20
2019-05-30T05:24:58.728Z,85.10
2019-05-30T05:27:24.941Z,82.80
2019-05-30T05:29:51.100Z,83.00
2019-05-30T05:32:18.223Z,79.60
2019-05-30T05:34:44.552Z,76.40
2019-05-30T05:37:10.723Z,69.10
2019-05-30T05:39:36.896Z,70.70
2019-05-30T05:42:03.123Z,68.20
2019-05-30T05:44:29.331Z,65.40
2019-05-30T05:46:55.504Z,62.80
2019-05-30T05:49:22.618Z,59.00
2019-05-30T05:51:48.961Z,56.20
2019-05-30T05:54:15.176Z,54.60
2019-05-30T05:56:41.477Z,55.30
2019-05-30T05:59:07.734Z,51.50
2019-05-30T06:01:34.050Z,50.00
2019-05-30T06:04:12.751Z,48.50
2019-05-30T06:06:31.515Z,48.90
2019-05-30T06:08:57.537Z,47.10
2019-05-30T06:11:24.638Z,50.80
2019-05-30T06:13:51.105Z,46.30
2019-05-30T06:16:17.815Z,42.50
2019-05-30T06:18:44.042Z,41.60
2019-05-30T06:21:10.241Z,39.70
2019-05-30T06:23:36.432Z,37.80
2019-05-30T06:26:02.909Z,40.30
2019-05-30T06:28:29.117Z,41.20
2019-05-30T06:30:58.769Z,38.30
2019-05-30T06:33:23.810Z,40.40
2019-05-30T06:35:51.189Z,38.40
2019-05-30T06:38:17.354Z,35.80
2019-05-30T06:40:43.574Z,32.10
2019-05-30T06:43:09.741Z,30.30
2019-05-30T06:45:35.909Z,31.50
2019-05-30T06:48:02.117Z,32.60
2019-05-30T06:50:29.169Z,33.30
2019-05-30T06:52:55.514Z,32.90
2019-05-30T06:55:23.007Z,36.80
2019-05-30T06:57:49.453Z,36.60
2019-05-30T07:00:16.021Z,33.50
2019-05-30T07:02:42.541Z,31.70
2019-05-30T07:05:09.887Z,29.80
2019-05-30T07:07:36.476Z,34.80
2019-05-30T07:10:06.435Z,36.20
2019-05-30T07:12:33.237Z,39.50
2019-05-30T07:14:59.600Z,43.80
2019-05-30T07:17:25.793Z,46.00
2019-05-30T07:19:51.975Z,46.00
2019-05-30T07:22:18.167Z,46.90
2019-05-30T07:24:44.330Z,47.60
2019-05-30T07:27:10.558Z,48.20
2019-05-30T07:29:36.730Z,45.20
2019-05-30T07:32:03.301Z,36.40
2019-05-30T07:34:30.192Z,31.80
2019-05-30T07:36:56.592Z,32.20
2019-05-30T07:39:22.773Z,31.30
2019-05-30T07:42:05.234Z,29.60
2019-05-30T07:44:17.065Z,28.10
2019-05-30T07:46:43.230Z,31.50
2019-05-30T07:49:09.462Z,33.20
2019-05-30T07:51:35.668Z,37.10
2019-05-30T07:54:02.044Z,40.10
2019-05-30T07:56:28.927Z,43.80
2019-05-30T07:58:55.365Z,46.20
2019-05-30T08:01:21.738Z,48.80
2019-05-30T08:03:47.905Z,48.60
2019-05-30T08:06:14.211Z,48.70
2019-05-30T08:08:40.403Z,50.70
2019-05-30T08:11:09.791Z,51.30
2019-05-30T08:13:35.233Z,50.10
2019-05-30T08:16:01.700Z,50.70
2019-05-30T08:18:27.992Z,48.60
2019-05-30T08:20:54.179Z,47.40
2019-05-30T08:23:20.357Z,46.80
2019-05-30T08:25:46.551Z,47.20
2019-05-30T08:28:12.909Z,48.00
2019-05-30T08:30:39.479Z,45.50
2019-05-30T08:33:05.673Z,42.20
2019-05-30T08:35:46.720Z,39.80
2019-05-30T08:38:00.057Z,40.50
2019-05-30T08:40:26.225Z,42.00
2019-05-30T08:42:52.452Z,43.20
2019-05-30T08:45:20.887Z,44.30
2019-05-30T08:47:47.365Z,45.80
2019-05-30T08:50:13.897Z,44.60
2019-05-30T08:52:40.947Z,43.60
2019-05-30T08:55:09.154Z,43.60
2019-05-30T08:57:36.530Z,41.40
2019-05-30T09:00:05.620Z,38.30
2019-05-30T09:02:57.985Z,38.50
2019-05-30T09:05:28.087Z,38.00
2019-05-30T09:07:54.265Z,34.70
2019-05-30T09:10:21.246Z,35.50
2019-05-30T09:12:49.604Z,35.90
2019-05-30T09:15:16.009Z,38.30
2019-05-30T09:17:42.658Z,39.20
2019-05-30T09:20:10.020Z,30.60
2019-05-30T09:22:38.462Z,27.80
2019-05-30T09:25:07.840Z,28.80
2019-05-30T09:27:34.060Z,29.70
2019-05-30T09:30:00.507Z,31.00
2019-05-30T09:32:26.724Z,34.50
2019-05-30T09:34:52.940Z,37.30
2019-05-30T09:37:19.093Z,41.20
2019-05-30T09:39:45.595Z,42.80
2019-05-30T09:42:11.858Z,41.30
2019-05-30T09:44:38.074Z,39.40
2019-05-30T09:47:04.320Z,34.30
2019-05-30T09:49:30.648Z,30.00
2019-05-30T09:51:56.842Z,32.30
2019-05-30T09:54:23.045Z,30.40
2019-05-30T09:56:50.659Z,27.90
2019-05-30T09:59:17.416Z,27.30
2019-05-30T10:01:44.329Z,27.10
2019-05-30T10:04:10.588Z,26.60
2019-05-30T10:06:36.978Z,28.20
2019-05-30T10:09:06.594Z,33.20
2019-05-30T10:11:32.874Z,38.00
2019-05-30T10:13:59.071Z,40.60
2019-05-30T10:16:25.313Z,42.30
2019-05-30T10:18:52.707Z,43.90
2019-05-30T10:21:19.284Z,44.30
2019-05-30T10:23:46.184Z,43.80
2019-05-30T10:26:13.949Z,46.30
2019-05-30T10:31:01.309Z,43.10
2019-05-30T10:33:27.495Z,43.20
2019-05-30T10:35:53.682Z,43.70
2019-05-30T10:38:20.249Z,42.60
2019-05-30T10:40:47.430Z,37.80
2019-05-30T10:43:14.689Z,35.70
2019-05-30T10:45:40.885Z,33.90
2019-05-30T10:48:07.553Z,33.50
2019-05-30T10:50:33.788Z,32.30
2019-05-30T10:52:59.996Z,30.80
2019-05-30T10:55:26.685Z,27.10
2019-05-30T10:57:56.270Z,24.50
2019-05-30T11:00:24.800Z,24.40
2019-05-30T11:02:51.285Z,25.50
2019-05-30T11:05:19.045Z,26.60
2019-05-30T11:08:06.930Z,25.20
2019-05-30T11:10:38.107Z,23.90
2019-05-30T11:13:06.893Z,25.60
2019-05-30T11:15:33.387Z,27.10
2019-05-30T11:18:00.674Z,26.00
2019-05-30T11:20:26.984Z,23.20
2019-05-30T11:22:54.503Z,23.20
2019-05-30T11:25:21.130Z,26.00
2019-05-30T11:27:48.523Z,28.90
2019-05-30T11:30:15.622Z,26.40
2019-05-30T11:32:41.917Z,24.10
2019-05-30T11:35:11.501Z,22.60
2019-05-30T11:37:38.126Z,22.50
2019-05-30T11:40:06.134Z,25.60
2019-05-30T11:42:32.434Z,29.90
2019-05-30T11:44:59.868Z,32.10
2019-05-30T11:47:26.298Z,33.00
2019-05-30T11:49:53.593Z,33.70
2019-05-30T11:52:19.995Z,34.80
2019-05-30T11:54:46.185Z,34.60
2019-05-30T11:57:12.374Z,34.60
2019-05-30T11:59:38.823Z,35.10
2019-05-30T12:02:05.030Z,36.20
2019-05-30T12:04:31.235Z,34.10
2019-05-30T12:06:57.409Z,33.80
2019-05-30T12:09:23.839Z,32.80
2019-05-30T12:11:50.990Z,35.30
2019-05-30T12:14:21.137Z,37.60
2019-05-30T12:16:45.719Z,42.50
2019-05-30T12:19:12.073Z,41.80
2019-05-30T12:21:38.423Z,40.20
2019-05-30T12:24:05.103Z,41.40
2019-05-30T12:26:33.847Z,40.00
2019-05-30T12:29:00.159Z,42.00
2019-05-30T12:31:26.525Z,43.20
2019-05-30T12:33:54.081Z,45.40
2019-05-30T12:36:21.790Z,41.30
2019-05-30T12:38:47.964Z,43.40
2019-05-30T12:41:14.271Z,42.50
2019-05-30T12:43:40.571Z,44.50
2019-05-30T12:46:06.773Z,41.10
2019-05-30T12:48:32.937Z,44.60
2019-05-30T12:50:59.402Z,43.90
2019-05-30T12:53:25.623Z,43.40
2019-05-30T12:55:51.803Z,43.30
2019-05-30T12:58:18.065Z,43.30
2019-05-30T13:00:44.381Z,44.40
2019-05-30T13:03:10.565Z,42.60
2019-05-30T13:05:36.832Z,43.40
2019-05-30T13:08:17.690Z,42.80
2019-05-30T13:10:31.200Z,44.40
2019-05-30T13:12:57.599Z,40.70
2019-05-30T13:15:23.956Z,41.30
2019-05-30T13:17:50.344Z,44.20
2019-05-30T13:20:17.121Z,44.90
2019-05-30T13:22:43.355Z,45.70
2019-05-30T13:25:12.921Z,45.30
2019-05-30T13:27:39.093Z,46.30
2019-05-30T13:30:06.250Z,44.60
2019-05-30T13:32:32.466Z,43.30
2019-05-30T13:34:59.194Z,46.00
2019-05-30T13:37:26.761Z,47.20
2019-05-30T13:39:52.929Z,46.90
2019-05-30T13:42:19.157Z,46.00
2019-05-30T13:44:46.437Z,46.00
2019-05-30T13:47:12.662Z,44.50
2019-05-30T13:49:39.042Z,46.80
2019-05-30T13:52:05.340Z,45.90
2019-05-30T13:54:31.534Z,46.30
2019-05-30T13:56:57.702Z,46.20
2019-05-30T13:59:23.883Z,48.40
2019-05-30T14:01:50.047Z,48.00
2019-05-30T14:04:16.228Z,47.00
2019-05-30T14:06:42.419Z,48.20
2019-05-30T14:09:08.677Z,49.00
2019-05-30T14:11:35.161Z,48.90
2019-05-30T14:14:02.766Z,47.30
2019-05-30T14:16:29.020Z,45.50
2019-05-30T14:18:55.209Z,44.80
2019-05-30T14:21:21.408Z,44.20
2019-05-30T14:23:47.593Z,43.90
2019-05-30T14:26:14.093Z,45.30
2019-05-30T14:28:40.432Z,45.90
2019-05-30T14:31:06.828Z,47.70
2019-05-30T14:33:33.185Z,47.50
2019-05-30T14:35:59.359Z,48.90
2019-05-30T14:38:25.561Z,44.50
2019-05-30T14:40:51.733Z,45.50
2019-05-30T14:43:17.989Z,45.10
2019-05-30T14:45:44.169Z,45.90
2019-05-30T14:48:10.587Z,46.30
2019-05-30T14:50:36.909Z,46.70
2019-05-30T14:53:04.495Z,45.50
2019-05-30T14:55:30.893Z,46.30
2019-05-30T14:57:58.213Z,47.20
2019-05-30T15:00:24.969Z,48.80
2019-05-30T15:02:51.211Z,50.40
2019-05-30T15:05:17.962Z,50.00
2019-05-30T15:07:44.186Z,51.00
2019-05-30T15:10:12.612Z,49.60
2019-05-30T15:12:39.041Z,50.50
2019-05-30T15:15:07.925Z,48.40
2019-05-30T15:17:34.820Z,48.80
2019-05-30T15:20:03.251Z,49.60
2019-05-30T15:22:29.453Z,47.70
2019-05-30T15:24:55.637Z,49.00
2019-05-30T15:27:21.813Z,48.80
2019-05-30T15:29:48.008Z,49.10
2019-05-30T15:32:14.488Z,47.40
2019-05-30T15:34:40.860Z,48.10
2019-05-30T15:37:07.029Z,49.40
2019-05-30T15:39:33.269Z,49.20
2019-05-30T15:41:59.505Z,49.10
2019-05-30T15:44:25.668Z,49.80
2019-05-30T15:46:51.845Z,49.40
2019-05-30T15:49:18.450Z,49.90
2019-05-30T15:51:44.690Z,50.40
2019-05-30T15:54:10.889Z,49.30
2019-05-30T15:56:37.077Z,50.20
2019-05-30T15:59:03.244Z,51.30
2019-05-30T16:01:29.405Z,50.20
2019-05-30T16:03:55.582Z,50.90
2019-05-30T16:06:22.749Z,49.70
2019-05-30T16:08:48.958Z,49.20
2019-05-30T16:11:15.227Z,50.20
2019-05-30T16:13:41.417Z,49.90
2019-05-30T16:16:07.574Z,49.20
2019-05-30T16:18:33.962Z,49.20
2019-05-30T16:21:00.125Z,49.70
2019-05-30T16:23:27.754Z,48.30
2019-05-30T16:25:55.892Z,47.20
2019-05-30T16:28:22.094Z,46.30
2019-05-30T16:30:48.258Z,47.90
2019-05-30T16:33:14.493Z,47.30
2019-05-30T16:35:40.676Z,47.70
2019-05-30T16:38:06.857Z,48.00
2019-05-30T16:40:33.038Z,45.80
2019-05-30T16:42:59.213Z,47.10
2019-05-30T16:45:25.835Z,47.10
2019-05-30T16:47:52.989Z,44.80
2019-05-30T16:50:22.769Z,45.30
2019-05-30T16:52:49.298Z,44.60
2019-05-30T16:55:15.789Z,43.70
2019-05-30T16:57:41.972Z,47.20
2019-05-30T17:00:12.113Z,45.70
2019-05-30T17:02:38.432Z,44.70
2019-05-30T17:05:06.699Z,47.30
2019-05-30T17:07:33.075Z,46.50
2019-05-30T17:09:59.452Z,46.20
2019-05-30T17:12:25.807Z,45.80
2019-05-30T17:14:52.203Z,44.90
2019-05-30T17:17:19.965Z,45.20
2019-05-30T17:19:47.431Z,44.20
2019-05-30T17:22:13.634Z,45.80
2019-05-30T17:24:39.881Z,44.90
2019-05-30T17:27:06.131Z,43.60
2019-05-30T17:29:32.300Z,48.10
2019-05-30T17:31:58.504Z,47.70
2019-05-30T17:34:26.093Z,45.90
2019-05-30T17:36:52.400Z,47.20
2019-05-30T17:39:18.905Z,47.70
2019-05-30T17:41:45.253Z,50.20
2019-05-30T17:44:11.447Z,50.30
2019-05-30T17:46:37.653Z,50.70
2019-05-30T17:49:04.126Z,50.80
2019-05-30T17:51:30.304Z,51.70
2019-05-30T17:53:56.483Z,51.60
2019-05-30T17:56:23.886Z,52.00
2019-05-30T17:58:50.324Z,51.80
2019-05-30T18:01:16.505Z,52.10
2019-05-30T18:03:42.733Z,52.10
2019-05-30T18:06:08.929Z,52.40
2019-05-30T18:08:35.113Z,53.50
2019-05-30T18:11:01.281Z,54.00
2019-05-30T18:13:27.464Z,53.20
2019-05-30T18:15:53.621Z,53.90
2019-05-30T18:18:21.088Z,54.60
2019-05-30T18:20:48.643Z,54.70
2019-05-30T18:23:15.115Z,55.90
2019-05-30T18:25:41.338Z,56.10
2019-05-30T18:28:07.639Z,56.60
2019-05-30T18:30:41.992Z,57.10
2019-05-30T18:33:08.886Z,56.80
2019-05-30T18:35:35.084Z,56.10
2019-05-30T18:38:02.063Z,57.50
2019-05-30T18:40:31.263Z,58.40
2019-05-30T18:42:58.451Z,59.40
2019-05-30T18:45:38.922Z,59.90
2019-05-30T18:48:05.985Z,60.30
2019-05-30T18:50:33.269Z,62.30
2019-05-30T18:52:59.764Z,63.80
2019-05-30T18:55:26.559Z,64.30
2019-05-30T18:57:52.965Z,64.80
2019-05-30T19:00:19.223Z,67.70
2019-05-30T19:02:45.397Z,67.80
2019-05-30T19:05:11.853Z,70.80
2019-05-30T19:07:38.032Z,73.00
2019-05-30T19:10:04.421Z,73.20
2019-05-30T19:12:30.684Z,73.40
2019-05-30T19:14:56.865Z,73.80
2019-05-30T19:17:23.057Z,75.90
2019-05-30T19:19:51.345Z,76.10
2019-05-30T19:22:17.491Z,75.80
2019-05-30T19:24:43.729Z,74.00
2019-05-30T19:27:09.939Z,76.50
2019-05-30T19:29:38.110Z,77.70
2019-05-30T19:32:04.409Z,77.30
2019-05-30T19:34:30.770Z,75.10
2019-05-30T19:36:57.072Z,76.30
2019-05-30T19:39:23.245Z,79.40
2019-05-30T19:41:56.643Z,81.60
2019-05-30T19:44:17.543Z,81.20
2019-05-30T19:46:43.737Z,79.20
2019-05-30T19:49:09.883Z,80.70
2019-05-30T19:51:37.175Z,80.10
2019-05-30T19:54:03.438Z,79.30
2019-05-30T19:56:29.786Z,78.60
2019-05-30T19:58:55.940Z,79.20
2019-05-30T20:01:22.141Z,79.80
2019-05-30T20:03:48.299Z,80.30
2019-05-30T20:06:14.486Z,80.30
2019-05-30T20:08:52.839Z,80.70
2019-05-30T20:11:08.753Z,81.50
2019-05-30T20:13:35.078Z,80.50
2019-05-30T20:16:01.302Z,81.00
2019-05-30T20:18:27.482Z,82.70
2019-05-30T20:20:57.656Z,84.10
2019-05-30T20:23:22.845Z,85.30
2019-05-30T20:25:49.047Z,86.10
2019-05-30T20:28:15.284Z,86.20
2019-05-30T20:30:41.668Z,86.60
2019-05-30T20:33:07.856Z,86.00
2019-05-30T20:35:36.070Z,85.50
2019-05-30T20:38:02.132Z,86.30
2019-05-30T20:40:28.305Z,85.50
2019-05-30T20:42:54.483Z,85.80
2019-05-30T20:45:21.154Z,85.90
2019-05-30T20:47:47.574Z,85.70
2019-05-30T20:50:15.702Z,85.90
2019-05-30T20:52:45.416Z,85.90
2019-05-30T20:55:12.152Z,86.00
2019-05-30T20:57:38.488Z,86.50
2019-05-30T21:00:09.101Z,86.60
2019-05-30T21:02:36.561Z,86.60
2019-05-30T21:05:05.242Z,87.00
2019-05-30T21:07:33.194Z,88.20
2019-05-30T21:10:00.441Z,87.50
2019-05-30T21:12:37.693Z,87.70
2019-05-30T21:15:00.181Z,87.90
2019-05-30T21:17:26.618Z,88.40
2019-05-30T21:19:52.944Z,88.70
2019-05-30T21:22:19.614Z,88.90
2019-05-30T21:24:46.997Z,89.20
2019-05-30T21:27:13.413Z,89.70
2019-05-30T21:29:41.016Z,90.00
2019-05-30T21:32:07.326Z,89.90
2019-05-30T21:34:33.486Z,89.90
2019-05-30T21:36:59.644Z,90.10
2019-05-30T21:39:25.840Z,90.20
2019-05-30T21:41:52.069Z,90.20
2019-05-30T21:44:18.247Z,90.50
2019-05-30T21:46:44.823Z,90.60
2019-05-30T21:49:11.148Z,90.60
2019-05-30T21:51:37.317Z,90.70
2019-05-30T21:54:03.501Z,90.70
2019-05-30T21:56:29.665Z,90.80
2019-05-30T21:58:55.890Z,91.00
2019-05-30T22:01:26.860Z,91.10
2019-05-30T22:03:53.060Z,91.20
2019-05-30T22:06:19.654Z,91.00
2019-05-30T22:08:47.114Z,91.00
2019-05-30T22:11:13.449Z,91.10
2019-05-30T22:13:39.864Z,91.20
2019-05-30T22:16:06.257Z,91.20
2019-05-30T22:18:32.448Z,91.10
2019-05-30T22:20:58.790Z,91.20
2019-05-30T22:23:24.980Z,91.30
2019-05-30T22:25:51.192Z,91.60
2019-05-30T22:28:17.369Z,91.40
2019-05-30T22:30:44.528Z,91.50
2019-05-30T22:33:10.712Z,91.30
2019-05-30T22:35:36.865Z,91.30
2019-05-30T22:38:03.050Z,91.60
2019-05-30T22:40:29.225Z,91.40
2019-05-30T22:42:56.448Z,91.50
2019-05-30T22:45:22.788Z,91.40
2019-05-30T22:47:48.995Z,91.40
2019-05-30T22:50:15.190Z,91.40
2019-05-30T22:52:41.384Z,91.30
2019-05-30T22:55:07.890Z,91.40
2019-05-30T22:57:34.048Z,91.30
2019-05-30T23:00:01.530Z,91.30
2019-05-30T23:02:27.699Z,91.30
2019-05-30T23:04:54.303Z,91.20
2019-05-30T23:07:20.648Z,91.30
2019-05-30T23:09:47.528Z,91.10
2019-05-30T23:12:13.784Z,91.00
2019-05-30T23:14:39.966Z,90.90
2019-05-30T23:17:06.140Z,91.00
2019-05-30T23:19:32.299Z,91.00
2019-05-30T23:21:58.486Z,90.90
2019-05-30T23:24:24.643Z,91.00
2019-05-30T23:26:51.722Z,91.00
2019-05-30T23:29:18.140Z,91.10
2019-05-30T23:31:44.303Z,91.10
2019-05-30T23:34:10.513Z,91.00
2019-05-30T23:36:36.667Z,90.90
2019-05-30T23:39:05.105Z,90.90
2019-05-30T23:41:31.991Z,90.80
2019-05-30T23:44:10.649Z,90.80
2019-05-30T23:46:26.281Z,90.80
2019-05-30T23:48:53.527Z,91.00
2019-05-30T23:51:19.942Z,91.20
2019-05-30T23:53:46.326Z,90.90
2019-05-30T23:56:12.669Z,90.70
2019-05-30T23:58:38.848Z,90.80
